Latest Weather Observations for Inner Beacon

IDQ60801

Issued at 8:02 pm EST Wednesday 19 February 2020 (issued every 10 minutes, with the page automatically refreshed every 10 minutes)

About weather observations | Map of weather stations | Latest weather observations for QLD | Other Formats
Station Details ID: 040926 Name: INNER RECIPROCAL MARKER Lat: -27.26 Lon: 153.24 Height: 10.0 m
Data from the previous 72 hours. | See also: Recent months at Inner Beacon
Date/Time
EST
Temp
°C
App
Temp
°C
Dew
Point
°C
Rel
Hum
%
Delta-T
°C
Wind Press
QNH
hPa
Press
MSL
hPa
Rain since
9am
mm
Dir  Spd
km/h
Gust
km/h
Spd
kts
Gust
kts
19/08:00pm - - - - - N 37 44 20 24 - - -
19/07:30pm - - - - - N 35 41 19 22 - - -
19/07:00pm - - - - - N 37 44 20 24 - - -
19/06:30pm - - - - - N 39 46 21 25 - - -
19/06:00pm - - - - - N 37 44 20 24 - - -
19/05:30pm - - - - - N 37 44 20 24 - - -
19/05:00pm - - - - - N 39 44 21 24 - - -
19/04:30pm - - - - - N 37 43 20 23 - - -
19/04:00pm - - - - - N 39 43 21 23 - - -
19/03:30pm - - - - - N 37 43 20 23 - - -
19/03:00pm - - - - - N 35 41 19 22 - - -
19/02:30pm - - - - - N 33 37 18 20 - - -
19/02:00pm - - - - - NNE 32 35 17 19 - - -
19/01:30pm - - - - - NNE 30 33 16 18 - - -
19/01:00pm - - - - - N 30 33 16 18 - - -
19/12:30pm - - - - - N 28 32 15 17 - - -
19/12:00pm - - - - - N 24 26 13 14 - - -
19/11:30am - - - - - N 22 26 12 14 - - -
19/11:00am - - - - - N 17 20 9 11 - - -
19/10:30am - - - - - N 11 15 6 8 - - -
19/10:00am - - - - - NW 13 17 7 9 - - -
19/09:30am - - - - - NNW 17 20 9 11 - - -
19/09:00am - - - - - NW 20 24 11 13 - - -
19/08:30am - - - - - NW 19 20 10 11 - - -
19/08:00am - - - - - NW 17 22 9 12 - - -
19/07:30am - - - - - NNW 19 20 10 11 - - -
19/07:00am - - - - - NNW 20 24 11 13 - - -
19/06:30am - - - - - NNW 20 24 11 13 - - -
19/06:00am - - - - - NNW 22 28 12 15 - - -
19/05:30am - - - - - NNW 24 28 13 15 - - -
19/05:00am - - - - - NNW 26 32 14 17 - - -
19/04:30am - - - - - NNW 28 33 15 18 - - -
19/04:00am - - - - - NNW 26 30 14 16 - - -
19/03:30am - - - - - NNW 26 32 14 17 - - -
19/03:00am - - - - - NNW 28 33 15 18 - - -
19/02:30am - - - - - NNW 28 30 15 16 - - -
19/02:00am - - - - - N 32 37 17 20 - - -
19/01:30am - - - - - N 30 35 16 19 - - -
19/01:00am - - - - - N 26 32 14 17 - - -
19/12:30am - - - - - N 24 30 13 16 - - -
19/12:00am - - - - - N 22 28 12 15 - - -
 
Date/Time
EST
Temp
°C
App
Temp
°C
Dew
Point
°C
Rel
Hum
%
Delta-T
°C
Wind Press
QNH
hPa
Press
MSL
hPa
Rain since
9am
mm
Dir  Spd
km/h
Gust
km/h
Spd
kts
Gust
kts
18/11:30pm - - - - - NNW 22 28 12 15 - - -
18/11:00pm - - - - - N 26 30 14 16 - - -
18/10:30pm - - - - - N 26 30 14 16 - - -
18/10:00pm - - - - - NNE 26 32 14 17 - - -
18/09:30pm - - - - - NNE 26 32 14 17 - - -
18/09:00pm - - - - - NNE 24 28 13 15 - - -
18/08:30pm - - - - - NNE 26 32 14 17 - - -
18/08:00pm - - - - - NE 28 32 15 17 - - -
18/07:30pm - - - - - ENE 26 32 14 17 - - -
18/07:00pm - - - - - ENE 28 32 15 17 - - -
18/06:30pm - - - - - E 20 26 11 14 - - -
18/06:00pm - - - - - E 22 26 12 14 - - -
18/05:30pm - - - - - E 24 28 13 15 - - -
18/05:00pm - - - - - E 22 28 12 15 - - -
18/04:30pm - - - - - E 20 24 11 13 - - -
18/04:00pm - - - - - E 19 22 10 12 - - -
18/03:30pm - - - - - E 13 17 7 9 - - -
18/03:00pm - - - - - E 11 15 6 8 - - -
18/02:30pm - - - - - E 9 13 5 7 - - -
18/02:00pm - - - - - E 9 11 5 6 - - -
18/01:30pm - - - - - ESE 6 9 3 5 - - -
18/01:00pm - - - - - ESE 9 11 5 6 - - -
18/12:30pm - - - - - ESE 9 13 5 7 - - -
18/12:00pm - - - - - SE 7 13 4 7 - - -
18/11:30am - - - - - SE 9 13 5 7 - - -
18/11:00am - - - - - SSE 7 11 4 6 - - -
18/10:30am - - - - - SSE 9 11 5 6 - - -
18/10:00am - - - - - SSE 11 15 6 8 - - -
18/09:30am - - - - - S 11 13 6 7 - - -
18/09:00am - - - - - SSE 11 13 6 7 - - -
18/08:30am - - - - - SSE 9 11 5 6 - - -
18/08:00am - - - - - SSE 13 15 7 8 - - -
18/07:30am - - - - - S 17 19 9 10 - - -
18/07:00am - - - - - S 17 19 9 10 - - -
18/06:30am - - - - - S 15 17 8 9 - - -
18/06:00am - - - - - S 17 20 9 11 - - -
18/05:30am - - - - - SSE 13 15 7 8 - - -
18/05:00am - - - - - S 13 15 7 8 - - -
18/04:30am - - - - - SW 6 11 3 6 - - -
18/04:00am - - - - - W 4 6 2 3 - - -
18/03:30am - - - - - CALM 0 0 0 0 - - -
18/03:00am - - - - - NW 2 4 1 2 - - -
18/02:30am - - - - - NNW 6 9 3 5 - - -
18/02:00am - - - - - N 7 7 4 4 - - -
18/01:30am - - - - - NE 9 11 5 6 - - -
18/01:00am - - - - - E 7 11 4 6 - - -
18/12:30am - - - - - E 9 13 5 7 - - -
18/12:00am - - - - - E 9 15 5 8 - - -
 
Date/Time
EST
Temp
°C
App
Temp
°C
Dew
Point
°C
Rel
Hum
%
Delta-T
°C
Wind Press
QNH
hPa
Press
MSL
hPa
Rain since
9am
mm
Dir  Spd
km/h
Gust
km/h
Spd
kts
Gust
kts
17/11:30pm - - - - - E 11 15 6 8 - - -
17/11:00pm - - - - - E 15 20 8 11 - - -
17/10:30pm - - - - - E 13 22 7 12 - - -
17/10:00pm - - - - - E 17 26 9 14 - - -
17/09:30pm - - - - - SE 24 30 13 16 - - -
17/09:00pm - - - - - ESE 22 28 12 15 - - -
17/08:30pm - - - - - ESE 20 28 11 15 - - -
17/08:00pm - - - - - ESE 22 28 12 15 - - -
17/07:30pm - - - - - E 20 24 11 13 - - -
17/07:00pm - - - - - E 20 28 11 15 - - -
17/06:30pm - - - - - E 17 22 9 12 - - -
17/06:00pm - - - - - E 19 24 10 13 - - -
17/05:30pm - - - - - E 22 28 12 15 - - -
17/05:00pm - - - - - E 20 28 11 15 - - -
17/04:30pm - - - - - E 17 20 9 11 - - -
17/04:00pm - - - - - E 15 20 8 11 - - -
17/03:30pm - - - - - E 15 20 8 11 - - -
17/03:00pm - - - - - E 13 20 7 11 - - -
17/02:30pm - - - - - E 13 19 7 10 - - -
17/02:00pm - - - - - E 13 17 7 9 - - -
17/01:30pm - - - - - E 13 19 7 10 - - -
17/01:00pm - - - - - E 11 15 6 8 - - -
17/12:30pm - - - - - E 11 17 6 9 - - -
17/12:00pm - - - - - E 13 19 7 10 - - -
17/11:30am - - - - - ESE 15 17 8 9 - - -
17/11:00am - - - - - ESE 13 17 7 9 - - -
17/10:30am - - - - - E 11 15 6 8 - - -
17/10:00am - - - - - SE 11 15 6 8 - - -
17/09:30am - - - - - SE 13 15 7 8 - - -
17/09:00am - - - - - SE 13 17 7 9 - - -
17/08:30am - - - - - SSE 17 20 9 11 - - -
17/08:00am - - - - - SE 17 20 9 11 - - -
17/07:30am - - - - - SE 17 20 9 11 - - -
17/07:00am - - - - - ESE 11 17 6 9 - - -
17/06:30am - - - - - SE 13 17 7 9 - - -
17/06:00am - - - - - ESE 13 17 7 9 - - -
17/05:30am - - - - - SE 11 15 6 8 - - -
17/05:00am - - - - - SE 11 15 6 8 - - -
17/04:30am - - - - - ESE 13 17 7 9 - - -
17/04:00am - - - - - ESE 13 17 7 9 - - -
17/03:30am - - - - - ESE 11 15 6 8 - - -
17/03:00am - - - - - E 13 15 7 8 - - -
17/02:30am - - - - - E 15 17 8 9 - - -
17/02:00am - - - - - E 15 19 8 10 - - -
17/01:30am - - - - - E 13 19 7 10 - - -
17/01:00am - - - - - E 13 20 7 11 - - -
17/12:30am - - - - - ESE 15 20 8 11 - - -
17/12:00am - - - - - ESE 19 24 10 13 - - -
 
Date/Time
EST
Temp
°C
App
Temp
°C
Dew
Point
°C
Rel
Hum
%
Delta-T
°C
Wind Press
QNH
hPa
Press
MSL
hPa
Rain since
9am
mm
Dir  Spd
km/h
Gust
km/h
Spd
kts
Gust
kts
16/11:30pm - - - - - ESE 20 24 11 13 - - -
16/11:00pm - - - - - ESE 20 24 11 13 - - -
16/10:30pm - - - - - E 15 20 8 11 - - -
16/10:00pm - - - - - E 17 24 9 13 - - -
16/09:30pm - - - - - E 17 24 9 13 - - -
16/09:00pm - - - - - ESE 22 28 12 15 - - -
16/08:30pm - - - - - E 20 26 11 14 - - -

Other formats

Comma delimited format used in spreadsheet applications
http://www.bom.gov.au/fwo/IDQ60801/IDQ60801.94590.axf

JavaScript Object Notation format (JSON) in row-major order
http://www.bom.gov.au/fwo/IDQ60801/IDQ60801.94590.json

Data quality

Most of these data are generated automatically and are frequently updated. Quality checks on data are not normally performed. It is possible for incorrect values to appear. Refer to information at About Latest Weather Observations and please check the disclaimer before using these data.